Impacts METAR Board INFO
IDs:

KSEA - Seattle-Tacoma Intl, WA, US

Updated at: 2257 UTC 21 Feb 2018
Potential Impact None Slight Moderate High
Time21/10Z 21/11Z 21/12Z 21/13Z 21/14Z 21/15Z 21/16Z 21/17Z 21/18Z 21/19Z 21/20Z 21/21Z 21/22Z
VIS 10 10 10 10 10 10 10 10 10 10
CIG -- -- -- 250 250 250 230 44 44 70
CoverCLRFEWSCTOVCOVCOVCBKNOVCOVCOVC
FltCatVFRVFRVFRVFRVFRVFRVFRVFRVFRVFR
WX--------------------
WDir50110110120130150200220170170
WSpd 4 10 7 8 6 6 7 8 6 9
WGst -- -- -- -- -- -- -- -- -- --
Raw hourly METARs



KSEA 211253Z 05004KT 10SM CLR M03/M11 A3031 RMK AO2 SLP276 T10281106 $
KSEA 211353Z 11010KT 10SM FEW240 M02/M11 A3030 RMK AO2 SLP273 T10221106 $
KSEA 211453Z 11007KT 10SM SCT240 M03/M11 A3031 RMK AO2 SLP276 T10281106 51004 $
KSEA 211553Z 12008KT 10SM OVC250 M02/M11 A3032 RMK AO2 SLP279 T10221106
KSEA 211653Z 13006KT 10SM SCT130 OVC250 M02/M10 A3032 RMK AO2 SLP280 T10171100
KSEA 211753Z 15006KT 10SM FEW110 OVC250 M01/M09 A3031 RMK AO2 SLP276 T10111094 11006 21033 58001
KSEA 211853Z 20007KT 10SM FEW110 BKN230 00/M07 A3029 RMK AO2 SLP270 T00001072
KSEA 211953Z 22008KT 10SM BKN044 OVC230 00/M06 A3030 RMK AO2 SLP271 T00001056
KSEA 212053Z 17006KT 10SM BKN044 BKN090 OVC200 01/M06 A3028 RMK AO2 SLP267 T00061056 56009
KSEA 212153Z 17009KT 10SM FEW045 OVC070 01/M06 A3027 RMK AO2 SLP261 T00061056